Main page
METAR-TAF:

METAR-TAF

Airports :

Ljubljana, Slovenia

Ljubljana Jože Pučnik Airport

latitude: 46-13N, longitude: 014-29E, elevation: 385 m

Current weather observation

The report was made 38 minutes ago, at 23:30 UTC
Wind 2 kt from variable directions
Temperature -2°C
Humidity 100%
Pressure 1018 hPa
Visibility 10 km or more
no clouds below 1500 m and no cumulonimbus

METAR: LJLJ 262330Z VRB02KT CAVOK M02/M02 Q1018 NOSIG

Time: 01:08 (00:08 UTC)

Forecast

The report was made 1 hour and 8 minutes ago, at 23:00 UTC
Forecast valid from 27 at 00 UTC to 27 at 24 UTC
Wind 2 kt from variable directions
Visibility 10 km or more
no clouds below 1500 m and no cumulonimbus
Becoming
from 27 at 06 UTC to 27 at 09 UTC
Few clouds at a height of 5000 ft
Scattered clouds at a height of 17000 ft
Becoming
from 27 at 11 UTC to 27 at 13 UTC
Wind 5 kt from the West/Southwest

TAF: LJLJ 262300Z 2700/2724 VRB02KT CAVOK BECMG 2706/2709 FEW050 SCT170 BECMG 2711/2713 25005KT

Weather observations and forecasts of more than 4000 airports (METAR and TAF reports).

The available stations are represented by yellow and red dots on the map.

Hover mouse over dot to see the name of the station.

Then click to see weather observations and forecasts.

To change the map : click on the green buttons with a black cross to zoom in, on the green button with a dash to zoom out, or on the green arrows for adjacent maps.


METAR-TAF: